Time;durP1;ratioP1;P1;durP2;ratioP2;P2;SDS_P1;SDS_P2;PMS_P1;PMS_P2;Temp;Humidity;BMP_temperature;BMP_pressure;BME280_temperature;BME280_humidity;BME280_pressure;Samples;Min_cycle;Max_cycle;Signal;HPM_P1;HPM_P2
2021/12/07 00:01:42;;;;;;;6.28;3.33;;;4.50;99.90;;;;;;5051523;28;20029;-83
2021/12/07 00:04:10;;;;;;;6.68;3.58;;;4.40;99.90;;;;;;5050694;28;20030;-81
2021/12/07 00:06:36;;;;;;;7.47;4.30;;;4.40;99.90;;;;;;5045124;28;20520;-82
2021/12/07 00:09:06;;;;;;;6.35;4.22;;;4.50;99.90;;;;;;5043605;28;20029;-81
2021/12/07 00:11:32;;;;;;;7.65;4.03;;;4.50;99.90;;;;;;5043998;28;20122;-80
2021/12/07 00:13:59;;;;;;;6.50;4.07;;;6.20;99.90;;;;;;5051571;28;20028;-80
2021/12/07 00:16:26;;;;;;;6.30;3.63;;;4.50;99.90;;;;;;5049013;28;20032;-83
2021/12/07 00:18:53;;;;;;;6.45;3.65;;;4.50;99.90;;;;;;5052129;28;20021;-82
2021/12/07 00:21:21;;;;;;;5.72;3.90;;;4.90;99.90;;;;;;5051259;28;20071;-83
2021/12/07 00:23:51;;;;;;;5.13;3.10;;;4.50;99.90;;;;;;5058907;28;20040;-82
2021/12/07 00:26:27;;;;;;;6.93;4.53;;;4.50;99.90;;;;;;5060316;28;20056;-86
2021/12/07 00:28:55;;;;;;;5.35;3.42;;;;;;;;;;5064069;28;20037;-85
2021/12/07 00:31:29;;;;;;;7.70;3.67;;;;;;;;;;5046919;28;20127;-83
2021/12/07 00:34:38;;;;;;;6.15;3.60;;;4.60;99.90;;;;;;5050674;28;20029;-82
2021/12/07 00:37:02;;;;;;;4.07;2.88;;;6.70;99.90;;;;;;5043945;28;20132;-84
2021/12/07 00:39:29;;;;;;;4.18;2.80;;;4.50;99.90;;;;;;5046572;28;20037;-79
2021/12/07 00:41:56;;;;;;;6.70;3.17;;;4.60;99.90;;;;;;5047271;28;20029;-80
2021/12/07 00:44:24;;;;;;;5.72;3.45;;;4.60;99.90;;;;;;5059871;28;20106;-83
2021/12/07 00:46:51;;;;;;;4.95;2.80;;;4.60;99.90;;;;;;5048211;28;20025;-84
2021/12/07 00:49:17;;;;;;;4.78;2.65;;;4.60;99.90;;;;;;5046381;28;20037;-83
2021/12/07 00:51:43;;;;;;;4.22;2.47;;;4.60;99.90;;;;;;5050063;28;20119;-83
2021/12/07 00:54:10;;;;;;;5.35;2.88;;;6.60;99.90;;;;;;5044818;28;20040;-82
2021/12/07 00:56:36;;;;;;;3.45;1.85;;;4.60;99.90;;;;;;5046406;28;20040;-84
2021/12/07 00:59:03;;;;;;;3.53;1.90;;;6.40;99.90;;;;;;5049652;28;20500;-83
2021/12/07 01:01:30;;;;;;;2.97;1.40;;;4.70;99.90;;;;;;5056526;28;20127;-85
2021/12/07 01:03:56;;;;;;;2.63;1.50;;;4.80;99.90;;;;;;5052205;28;20079;-81
2021/12/07 01:25:05;;;;;;;5.00;1.58;;;5.10;99.90;;;;;;5053122;28;20035;-82
2021/12/07 01:27:31;;;;;;;5.00;2.42;;;5.10;99.90;;;;;;5046867;28;20034;-87
2021/12/07 01:30:11;;;;;;;4.10;1.23;;;6.90;99.90;;;;;;5045222;28;20032;-85
2021/12/07 01:32:53;;;;;;;6.10;1.98;;;;;;;;;;5065004;28;20070;-80
2021/12/07 01:41:13;;;;;;;4.40;1.38;;;5.30;99.90;;;;;;5026757;28;20489;-81
2021/12/07 01:46:46;;;;;;;2.20;1.13;;;4.80;99.90;;;;;;5045633;28;20055;-81
2021/12/07 02:00:00;;;;;;;3.38;0.80;;;4.90;99.90;;;;;;5049979;28;20071;-83
2021/12/07 02:02:28;;;;;;;2.75;0.80;;;4.90;99.90;;;;;;5049951;28;20025;-82
2021/12/07 02:04:55;;;;;;;2.83;0.80;;;;;;;;;;5060601;28;20025;-85
2021/12/07 02:07:22;;;;;;;2.13;0.95;;;;;;;;;;5047519;28;20035;-85
2021/12/07 02:09:53;;;;;;;2.35;0.95;;;;;;;;;;5052529;28;20040;-82
2021/12/07 02:12:20;;;;;;;4.25;1.45;;;;;;;;;;5051724;28;20548;-82
2021/12/07 02:14:46;;;;;;;3.28;1.42;;;;;;;;;;5050465;28;20033;-83
2021/12/07 02:17:15;;;;;;;5.28;1.88;;;4.80;99.90;;;;;;5049728;28;20032;-84
2021/12/07 02:19:41;;;;;;;5.15;1.50;;;;;;;;;;5048621;28;20028;-89
2021/12/07 02:22:10;;;;;;;5.10;1.45;;;;;;;;;;5051051;28;20075;-82
2021/12/07 02:24:37;;;;;;;4.80;1.38;;;;;;;;;;5066623;28;20028;-86
2021/12/07 02:27:04;;;;;;;3.22;1.45;;;4.80;99.90;;;;;;5052598;28;20041;-83
2021/12/07 02:29:30;;;;;;;3.90;1.55;;;4.80;99.90;;;;;;5056314;28;20044;-88
2021/12/07 02:31:58;;;;;;;6.40;1.80;;;4.80;99.90;;;;;;5047783;28;20842;-83
2021/12/07 02:34:25;;;;;;;5.55;1.40;;;;;;;;;;5051014;28;20119;-85
2021/12/07 02:36:52;;;;;;;4.38;1.70;;;4.80;99.90;;;;;;5048746;28;20645;-85
2021/12/07 02:39:19;;;;;;;6.28;1.65;;;;;;;;;;5049478;28;20111;-84
2021/12/07 02:41:45;;;;;;;4.45;1.50;;;;;;;;;;5049702;28;20020;-81
2021/12/07 02:44:12;;;;;;;5.75;1.55;;;;;;;;;;5049599;28;20079;-83
2021/12/07 02:46:39;;;;;;;4.35;1.30;;;4.90;99.90;;;;;;5065814;28;20029;-81
2021/12/07 02:49:07;;;;;;;5.78;1.77;;;4.90;99.90;;;;;;5050835;28;20036;-81
2021/12/07 02:51:34;;;;;;;8.45;2.00;;;4.90;99.90;;;;;;5056650;28;20096;-84
2021/12/07 02:54:01;;;;;;;8.38;1.90;;;5.20;99.90;;;;;;5049987;28;20128;-81
2021/12/07 02:56:32;;;;;;;10.07;2.53;;;3.80;99.90;;;;;;5050043;28;20726;-84
2021/12/07 02:59:02;;;;;;;8.18;1.92;;;;;;;;;;5046579;28;20401;-84
2021/12/07 03:01:32;;;;;;;8.83;2.10;;;;;;;;;;5050187;28;20086;-85
2021/12/07 03:04:08;;;;;;;5.32;1.67;;;5.00;99.90;;;;;;5048034;28;20033;-83
2021/12/07 03:26:05;;;;;;;8.20;1.83;;;;;;;;;;5049093;28;20416;-79
2021/12/07 03:28:34;;;;;;;6.68;2.00;;;5.10;99.90;;;;;;5049553;28;20025;-83
2021/12/07 03:31:01;;;;;;;8.43;1.92;;;;;;;;;;5045728;28;20071;-84
2021/12/07 03:33:27;;;;;;;6.65;1.60;;;;;;;;;;5048577;28;20156;-81
2021/12/07 03:35:56;;;;;;;5.72;1.80;;;4.30;99.90;;;;;;5053643;28;20024;-86
2021/12/07 03:38:23;;;;;;;8.30;1.85;;;5.20;99.90;;;;;;5048892;28;20028;-85
2021/12/07 03:40:50;;;;;;;8.82;2.15;;;5.10;99.90;;;;;;5049111;28;20143;-88
2021/12/07 03:43:16;;;;;;;10.25;1.90;;;4.60;99.90;;;;;;5049462;28;20496;-84
2021/12/07 03:45:43;;;;;;;8.63;2.35;;;5.20;99.90;;;;;;5047422;28;20035;-83
2021/12/07 03:48:12;;;;;;;5.70;1.90;;;5.20;99.90;;;;;;5047653;28;20029;-83
2021/12/07 03:50:39;;;;;;;7.82;3.00;;;5.10;99.90;;;;;;5049030;28;20124;-84
2021/12/07 03:53:06;;;;;;;9.00;1.83;;;3.60;99.90;;;;;;5048179;28;20052;-84
2021/12/07 03:55:34;;;;;;;6.75;2.03;;;5.00;99.90;;;;;;5048522;28;20028;-81
2021/12/07 03:58:02;;;;;;;8.98;1.95;;;5.00;99.90;;;;;;5049072;28;20405;-83
2021/12/07 04:00:33;;;;;;;6.22;2.22;;;4.90;99.90;;;;;;5044653;28;20029;-83
2021/12/07 04:03:02;;;;;;;7.18;2.30;;;3.00;99.90;;;;;;5049803;28;20098;-85
2021/12/07 04:05:29;;;;;;;10.45;2.28;;;;;;;;;;5049903;28;20021;-85
2021/12/07 04:07:55;;;;;;;8.43;2.13;;;;;;;;;;5052936;28;20025;-83
2021/12/07 04:10:23;;;;;;;7.50;1.75;;;4.80;99.90;;;;;;5050642;28;20032;-82
2021/12/07 04:12:50;;;;;;;21.02;2.88;;;5.10;99.90;;;;;;5047212;28;20107;-85
2021/12/07 04:15:19;;;;;;;9.27;1.90;;;4.80;99.90;;;;;;5046996;28;20021;-83
2021/12/07 04:17:46;;;;;;;9.52;2.22;;;5.00;99.90;;;;;;5052854;28;20021;-83
2021/12/07 04:20:16;;;;;;;8.07;1.85;;;4.80;99.90;;;;;;5045428;28;20032;-87
2021/12/07 04:22:42;;;;;;;8.45;1.88;;;;;;;;;;5054632;28;20028;-82
2021/12/07 04:25:11;;;;;;;5.30;1.77;;;4.80;99.90;;;;;;5050130;28;20037;-81
2021/12/07 04:27:41;;;;;;;15.82;2.60;;;4.80;99.90;;;;;;5052416;28;20025;-86
2021/12/07 04:30:17;;;;;;;9.40;1.80;;;5.10;99.90;;;;;;5057748;28;20036;-86
2021/12/07 04:32:44;;;;;;;8.23;1.70;;;4.90;99.90;;;;;;5049247;28;20027;-84
2021/12/07 04:35:11;;;;;;;6.60;1.98;;;5.00;99.90;;;;;;5050015;28;20079;-83
2021/12/07 04:37:38;;;;;;;9.55;1.65;;;;;;;;;;5048621;28;20033;-83
2021/12/07 04:40:07;;;;;;;4.28;1.60;;;5.00;99.90;;;;;;5047333;28;20040;-80
2021/12/07 04:42:33;;;;;;;6.43;2.08;;;;;;;;;;5046420;28;20026;-81
2021/12/07 04:45:03;;;;;;;5.85;1.48;;;;;;;;;;5046771;28;20485;-80
2021/12/07 04:50:43;;;;;;;6.53;1.80;;;;;;;;;;5042653;28;20124;-83
2021/12/07 04:58:39;;;;;;;5.72;1.50;;;;;;;;;;5053422;28;20568;-81
2021/12/07 05:01:10;;;;;;;9.02;2.00;;;;;;;;;;5050004;28;20029;-81
2021/12/07 05:03:37;;;;;;;11.10;2.05;;;4.80;99.90;;;;;;5049100;28;20028;-79
2021/12/07 05:06:04;;;;;;;11.27;1.98;;;7.20;99.90;;;;;;5047120;28;20468;-84
2021/12/07 05:08:40;;;;;;;8.93;1.80;;;;;;;;;;5047052;28;20342;-82
2021/12/07 05:14:22;;;;;;;11.13;1.80;;;4.80;99.90;;;;;;5054851;28;20035;-82
2021/12/07 05:16:40;;;;;;;10.43;1.58;;;4.90;99.90;;;;;;5048940;28;20048;-86
2021/12/07 05:24:53;;;;;;;7.50;3.03;;;;;;;;;;5050858;28;20123;-79
2021/12/07 05:38:18;;;;;;;8.85;1.75;;;4.90;99.90;;;;;;5045185;28;20390;-83
2021/12/07 05:40:44;;;;;;;6.97;2.10;;;4.90;99.90;;;;;;5048622;28;20479;-83
2021/12/07 05:43:10;;;;;;;11.77;1.80;;;4.90;99.90;;;;;;5047785;28;20115;-87
2021/12/07 05:45:39;;;;;;;4.18;1.58;;;5.00;99.90;;;;;;5048110;28;20245;-83
2021/12/07 05:48:06;;;;;;;9.15;1.65;;;3.90;99.90;;;;;;5048583;28;20070;-81
2021/12/07 05:50:35;;;;;;;8.07;1.52;;;5.00;99.90;;;;;;5049472;28;20037;-82
2021/12/07 05:53:04;;;;;;;6.75;1.50;;;5.50;99.90;;;;;;5034031;28;20486;-82
2021/12/07 05:55:29;;;;;;;10.43;1.90;;;4.90;99.90;;;;;;5059201;28;20033;-81
2021/12/07 05:57:56;;;;;;;10.00;2.17;;;5.00;99.90;;;;;;5065333;28;20039;-86
2021/12/07 06:00:28;;;;;;;5.70;1.60;;;4.90;99.90;;;;;;5058627;28;20051;-82
2021/12/07 06:03:00;;;;;;;7.93;2.10;;;4.90;99.90;;;;;;5058733;28;20024;-79
2021/12/07 06:05:27;;;;;;;4.10;1.60;;;4.90;99.90;;;;;;5051711;28;20104;-84
2021/12/07 06:07:54;;;;;;;8.48;2.50;;;4.90;99.90;;;;;;5052618;28;20025;-81
2021/12/07 06:10:19;;;;;;;9.23;1.55;;;4.90;99.90;;;;;;5047838;28;20396;-79
2021/12/07 06:12:46;;;;;;;8.57;2.10;;;;;;;;;;5049579;28;20021;-83
2021/12/07 06:15:15;;;;;;;7.72;2.03;;;4.80;99.90;;;;;;5050677;28;20048;-79
2021/12/07 06:17:40;;;;;;;12.05;1.63;;;4.80;99.90;;;;;;5061901;28;20026;-85
2021/12/07 06:20:07;;;;;;;5.43;1.48;;;4.80;99.90;;;;;;5057227;28;20025;-81
2021/12/07 06:22:33;;;;;;;9.82;2.42;;;4.80;99.90;;;;;;5046969;28;20128;-84
2021/12/07 06:24:59;;;;;;;9.88;1.70;;;4.80;99.90;;;;;;5041932;28;20150;-83
2021/12/07 06:27:25;;;;;;;7.43;1.63;;;4.70;99.90;;;;;;5044943;28;20037;-80
2021/12/07 06:29:51;;;;;;;6.20;1.80;;;4.80;99.90;;;;;;5048313;28;20432;-82
2021/12/07 06:32:17;;;;;;;6.22;1.73;;;4.70;99.90;;;;;;5052980;28;20115;-78
2021/12/07 06:34:43;;;;;;;9.23;1.75;;;4.90;99.90;;;;;;5054402;28;20119;-80
2021/12/07 06:37:09;;;;;;;7.85;2.03;;;3.70;99.90;;;;;;5053348;28;20087;-82
2021/12/07 06:39:35;;;;;;;10.95;2.45;;;3.50;99.90;;;;;;5047605;28;20028;-81
2021/12/07 06:42:02;;;;;;;9.32;1.70;;;;;;;;;;5042830;28;20116;-79
2021/12/07 06:44:28;;;;;;;12.82;2.28;;;4.80;99.90;;;;;;5048062;28;20025;-80
2021/12/07 06:46:54;;;;;;;6.45;1.60;;;;;;;;;;5050156;28;20028;-80
2021/12/07 06:49:20;;;;;;;7.47;1.90;;;;;;;;;;5053146;28;20056;-81
2021/12/07 06:51:47;;;;;;;13.18;2.58;;;4.80;99.90;;;;;;5049021;28;20087;-80
2021/12/07 06:54:13;;;;;;;9.68;1.52;;;;;;;;;;5050349;28;20037;-83
2021/12/07 06:56:40;;;;;;;10.70;1.70;;;;;;;;;;5047986;28;20070;-83
2021/12/07 06:59:06;;;;;;;7.93;1.77;;;;;;;;;;5047398;28;20021;-80
2021/12/07 07:01:32;;;;;;;7.93;1.80;;;4.80;99.90;;;;;;5047652;28;20023;-82
2021/12/07 07:03:58;;;;;;;7.28;1.98;;;;;;;;;;5058235;28;20025;-81
2021/12/07 07:06:25;;;;;;;9.85;2.10;;;;;;;;;;5047345;28;20076;-81
2021/12/07 07:08:51;;;;;;;8.13;2.05;;;;;;;;;;5050829;28;20037;-85
2021/12/07 07:11:18;;;;;;;9.93;1.63;;;4.80;99.90;;;;;;5050622;28;20040;-81
2021/12/07 07:13:46;;;;;;;6.30;2.95;;;4.70;99.90;;;;;;5052624;28;20037;-80
2021/12/07 07:16:12;;;;;;;9.27;2.05;;;;;;;;;;5050936;28;20515;-80
2021/12/07 07:18:38;;;;;;;13.70;2.30;;;;;;;;;;5051442;28;20037;-80
2021/12/07 07:21:07;;;;;;;5.05;1.92;;;;;;;;;;5043171;28;20032;-82
2021/12/07 07:23:38;;;;;;;7.75;1.90;;;;;;;;;;5046671;28;20057;-81
2021/12/07 07:26:05;;;;;;;5.97;2.00;;;4.70;99.90;;;;;;5066235;28;20045;-80
2021/12/07 07:28:35;;;;;;;9.40;1.70;;;4.70;99.90;;;;;;5053818;28;20115;-81
2021/12/07 07:31:03;;;;;;;8.30;1.98;;;4.70;99.90;;;;;;5046733;28;20033;-84
2021/12/07 07:33:30;;;;;;;8.68;2.15;;;;;;;;;;5048056;28;20401;-80
2021/12/07 07:35:56;;;;;;;14.05;2.55;;;;;;;;;;5050968;28;20033;-80
2021/12/07 07:38:22;;;;;;;8.98;1.95;;;;;;;;;;5053472;28;20036;-79
2021/12/07 07:40:48;;;;;;;7.97;2.17;;;;;;;;;;5055347;28;20025;-80
2021/12/07 07:43:16;;;;;;;8.00;1.88;;;4.80;99.90;;;;;;5055101;28;20029;-78
2021/12/07 07:45:49;;;;;;;14.50;2.83;;;4.80;99.90;;;;;;5052222;28;20024;-82
2021/12/07 07:48:17;;;;;;;10.07;2.28;;;4.70;99.90;;;;;;5033733;28;20025;-80
2021/12/07 07:50:43;;;;;;;10.00;2.13;;;;;;;;;;5034646;28;20025;-83
2021/12/07 07:53:09;;;;;;;11.93;2.53;;;4.80;99.90;;;;;;5052518;28;20528;-81
2021/12/07 07:55:38;;;;;;;8.32;2.25;;;6.40;99.90;;;;;;5041431;28;20029;-81
2021/12/07 07:58:04;;;;;;;11.82;2.40;;;;;;;;;;5057455;28;20112;-84
2021/12/07 08:00:30;;;;;;;13.00;3.15;;;4.70;99.90;;;;;;5056354;28;20033;-82
2021/12/07 08:02:56;;;;;;;12.45;2.45;;;;;;;;;;5055768;28;20032;-82
2021/12/07 08:05:23;;;;;;;12.48;2.63;;;4.70;99.90;;;;;;5054873;28;20021;-82
2021/12/07 08:07:51;;;;;;;9.13;2.70;;;;;;;;;;5053489;28;20040;-81
2021/12/07 08:10:20;;;;;;;8.43;2.72;;;4.70;99.90;;;;;;5049846;28;20041;-84
2021/12/07 08:12:47;;;;;;;9.73;2.88;;;;;;;;;;5047787;28;20063;-83
2021/12/07 08:15:12;;;;;;;11.75;2.60;;;4.70;99.90;;;;;;5046253;28;20043;-82
2021/12/07 08:17:39;;;;;;;10.65;2.00;;;5.10;99.90;;;;;;5027622;28;20318;-81
2021/12/07 08:20:06;;;;;;;14.65;3.17;;;4.70;99.90;;;;;;5037846;28;20025;-79
2021/12/07 08:22:32;;;;;;;11.35;2.83;;;4.70;99.90;;;;;;5041122;28;20037;-79
2021/12/07 08:24:58;;;;;;;12.05;2.58;;;4.70;99.90;;;;;;5000165;28;20446;-81
2021/12/07 08:27:25;;;;;;;7.93;2.40;;;4.70;99.90;;;;;;5042432;28;20120;-79
2021/12/07 08:29:51;;;;;;;11.30;2.30;;;4.70;99.90;;;;;;5045938;28;20055;-82
2021/12/07 08:32:17;;;;;;;10.15;2.33;;;4.70;99.90;;;;;;5031684;28;20489;-78
2021/12/07 08:34:42;;;;;;;12.75;2.45;;;4.70;99.90;;;;;;5033188;28;20045;-79
2021/12/07 08:37:08;;;;;;;11.85;2.17;;;4.70;99.90;;;;;;5033684;28;20043;-82
2021/12/07 08:39:35;;;;;;;11.73;2.83;;;4.80;99.90;;;;;;5044000;28;20065;-80
2021/12/07 08:42:02;;;;;;;15.10;4.15;;;4.80;99.90;;;;;;5030876;28;23464;-82
2021/12/07 08:44:30;;;;;;;10.38;2.25;;;4.90;99.90;;;;;;5037629;28;20032;-80
2021/12/07 08:46:56;;;;;;;14.18;4.07;;;4.90;99.90;;;;;;5029825;28;20057;-79
2021/12/07 08:49:23;;;;;;;11.00;2.85;;;4.90;99.90;;;;;;5044741;28;20494;-78
2021/12/07 08:51:50;;;;;;;11.07;2.75;;;5.00;99.90;;;;;;5032114;28;20536;-82
2021/12/07 08:54:33;;;;;;;10.98;3.00;;;5.10;99.90;;;;;;5044734;28;20570;-80
2021/12/07 09:02:10;;;;;;;9.80;3.10;;;5.40;99.90;;;;;;5030323;28;20401;-80
2021/12/07 09:04:37;;;;;;;18.70;3.00;;;;;;;;;;5035004;28;20395;-80
2021/12/07 09:07:05;;;;;;;11.50;3.67;;;5.30;99.90;;;;;;5056831;28;20037;-79
2021/12/07 09:09:31;;;;;;;14.73;4.28;;;5.30;99.90;;;;;;5050993;28;20044;-80
2021/12/07 09:11:56;;;;;;;12.57;3.28;;;5.20;99.90;;;;;;5050954;28;20076;-80
2021/12/07 09:14:23;;;;;;;11.50;2.83;;;5.30;99.90;;;;;;5037532;28;20199;-79
2021/12/07 09:16:49;;;;;;;16.50;3.50;;;5.30;99.90;;;;;;5036045;28;20398;-81
2021/12/07 09:19:15;;;;;;;11.32;2.88;;;5.40;99.90;;;;;;5047604;28;20152;-78
2021/12/07 09:21:41;;;;;;;16.55;3.13;;;5.40;99.90;;;;;;5033232;28;20028;-81
2021/12/07 09:24:07;;;;;;;12.18;3.55;;;5.40;99.90;;;;;;5040349;28;20824;-79
2021/12/07 09:26:34;;;;;;;10.02;3.10;;;5.40;99.90;;;;;;5037312;28;20084;-79
2021/12/07 09:29:00;;;;;;;14.60;2.92;;;5.40;99.90;;;;;;5046599;28;20118;-79
2021/12/07 09:31:26;;;;;;;10.60;2.92;;;6.30;99.90;;;;;;5040939;28;20036;-80
2021/12/07 09:33:54;;;;;;;9.02;3.30;;;;;;;;;;5041545;28;20025;-81
2021/12/07 09:36:19;;;;;;;11.65;3.38;;;5.70;99.90;;;;;;5039176;28;20033;-79
2021/12/07 09:38:45;;;;;;;11.43;3.78;;;7.00;99.90;;;;;;5045416;28;20520;-79
2021/12/07 09:41:11;;;;;;;12.07;3.03;;;5.80;99.90;;;;;;5041640;28;20052;-78
2021/12/07 09:43:38;;;;;;;9.75;2.67;;;5.70;99.90;;;;;;5058624;28;20357;-82
2021/12/07 09:46:06;;;;;;;11.43;3.97;;;5.70;99.90;;;;;;5049021;28;20094;-78
2021/12/07 09:48:32;;;;;;;8.68;2.45;;;5.80;99.90;;;;;;5051698;28;20392;-79
2021/12/07 09:50:58;;;;;;;9.02;2.70;;;6.20;99.90;;;;;;5063513;28;20041;-79
2021/12/07 09:53:28;;;;;;;9.85;2.85;;;5.80;99.90;;;;;;5052677;28;20036;-81
2021/12/07 09:55:56;;;;;;;11.02;2.88;;;5.70;99.90;;;;;;5038043;28;20029;-80
2021/12/07 09:58:22;;;;;;;9.82;2.30;;;7.80;99.90;;;;;;5037240;28;20030;-80
2021/12/07 10:00:49;;;;;;;10.63;3.20;;;7.60;99.90;;;;;;5040532;28;20044;-79
2021/12/07 10:03:16;;;;;;;12.25;2.85;;;6.50;99.90;;;;;;5037350;28;20025;-81
2021/12/07 10:05:43;;;;;;;10.85;2.65;;;5.80;99.90;;;;;;5037372;28;20025;-80
2021/12/07 10:08:09;;;;;;;10.15;3.28;;;5.80;99.90;;;;;;5037412;28;20615;-81
2021/12/07 10:10:39;;;;;;;10.55;2.90;;;5.80;99.90;;;;;;5042936;28;20056;-80
2021/12/07 10:13:07;;;;;;;10.90;2.87;;;5.90;99.90;;;;;;5034525;28;20383;-78
2021/12/07 10:15:33;;;;;;;15.70;3.25;;;5.90;99.90;;;;;;5041022;28;20060;-78
2021/12/07 10:18:09;;;;;;;14.23;3.50;;;5.70;99.90;;;;;;5040841;28;20029;-80
2021/12/07 10:20:41;;;;;;;8.52;3.17;;;6.30;99.90;;;;;;5039098;28;20025;-80
2021/12/07 10:23:16;;;;;;;11.45;2.90;;;5.60;99.90;;;;;;5039205;28;20109;-78
2021/12/07 10:25:52;;;;;;;11.68;3.00;;;5.60;99.90;;;;;;5045087;28;20555;-81
2021/12/07 10:28:51;;;;;;;15.55;3.75;;;5.60;99.90;;;;;;5040918;28;20284;-81
2021/12/07 10:31:17;;;;;;;10.63;3.03;;;;;;;;;;5008734;28;20029;-83
2021/12/07 10:33:59;;;;;;;13.15;3.28;;;5.70;99.90;;;;;;5069925;22;21076;-80
2021/12/07 10:36:29;;;;;;;12.77;3.60;;;5.60;99.90;;;;;;5080639;28;20434;-82
2021/12/07 10:39:09;;;;;;;12.57;3.58;;;7.80;99.90;;;;;;5041170;28;20035;-81
2021/12/07 10:41:41;;;;;;;14.23;3.90;;;5.70;99.90;;;;;;5045595;28;20029;-86
2021/12/07 10:44:10;;;;;;;10.52;3.10;;;5.80;99.90;;;;;;5047378;28;20029;-82
2021/12/07 10:47:05;;;;;;;9.23;3.30;;;5.80;99.90;;;;;;5045543;28;20040;-80
2021/12/07 10:49:38;;;;;;;9.25;4.05;;;5.80;99.90;;;;;;5041973;28;20067;-86
2021/12/07 10:52:18;;;;;;;11.07;3.17;;;5.90;99.90;;;;;;5048185;28;20484;-82
2021/12/07 10:54:47;;;;;;;9.30;2.80;;;5.90;99.90;;;;;;5050413;28;20017;-80
2021/12/07 10:57:23;;;;;;;10.30;2.83;;;6.00;99.90;;;;;;5047628;28;20137;-86
2021/12/07 11:00:00;;;;;;;13.82;2.75;;;6.00;99.90;;;;;;5051813;28;20385;-81
2021/12/07 11:02:33;;;;;;;12.40;2.47;;;6.00;99.90;;;;;;5047297;28;20020;-83
2021/12/07 11:05:01;;;;;;;9.88;2.47;;;6.00;99.90;;;;;;5045634;28;20362;-82
2021/12/07 11:07:29;;;;;;;12.25;3.05;;;6.30;99.90;;;;;;5047563;28;20025;-83
2021/12/07 11:10:07;;;;;;;9.88;3.15;;;6.10;99.90;;;;;;5054009;28;20028;-84
2021/12/07 11:15:30;;;;;;;7.93;2.83;;;6.20;99.90;;;;;;5047279;28;20507;-84
2021/12/07 11:18:02;;;;;;;9.70;2.45;;;6.20;99.90;;;;;;5044734;28;20036;-83
2021/12/07 11:20:30;;;;;;;7.18;2.22;;;6.20;99.90;;;;;;5044240;28;20029;-83
2021/12/07 11:23:16;;;;;;;8.52;2.53;;;6.20;99.90;;;;;;5044835;28;20018;-80
2021/12/07 11:31:29;;;;;;;6.10;2.60;;;6.10;99.90;;;;;;5051920;28;20044;-85
2021/12/07 11:34:08;;;;;;;10.93;3.05;;;6.10;99.90;;;;;;5056742;28;20033;-87
2021/12/07 11:36:44;;;;;;;10.15;2.95;;;6.10;99.90;;;;;;5053021;28;20132;-83
2021/12/07 11:39:35;;;;;;;8.20;2.50;;;6.10;99.90;;;;;;5051820;28;20033;-83
2021/12/07 11:42:07;;;;;;;;;;;6.20;99.90;;;;;;5056807;28;20025;-86
2021/12/07 11:44:38;;;;;;;10.68;2.80;;;6.30;99.90;;;;;;5059444;28;19909;-81
2021/12/07 11:47:06;;;;;;;11.45;3.17;;;6.30;99.90;;;;;;5052980;28;20055;-82
2021/12/07 11:49:36;;;;;;;9.60;2.65;;;6.30;99.90;;;;;;5055127;28;20138;-83
2021/12/07 11:52:06;;;;;;;8.60;2.70;;;5.50;99.90;;;;;;5049686;28;20024;-79
2021/12/07 11:54:38;;;;;;;11.15;2.53;;;6.50;99.90;;;;;;5048049;28;20045;-80
2021/12/07 11:57:13;;;;;;;9.43;2.78;;;8.90;99.90;;;;;;5048922;28;20048;-86
2021/12/07 11:59:41;;;;;;;9.95;2.28;;;6.50;99.90;;;;;;5046088;28;20017;-81
2021/12/07 12:02:08;;;;;;;11.13;2.75;;;6.50;99.90;;;;;;5044339;28;20040;-80
2021/12/07 12:04:39;;;;;;;9.65;2.97;;;5.00;99.90;;;;;;5042634;28;20056;-79
2021/12/07 12:07:08;;;;;;;17.52;2.63;;;6.50;99.90;;;;;;5051385;28;20111;-80
2021/12/07 12:09:36;;;;;;;10.35;1.90;;;7.30;99.90;;;;;;5036070;28;20048;-84
2021/12/07 12:12:12;;;;;;;11.82;2.40;;;6.50;99.90;;;;;;5053865;28;20033;-83
2021/12/07 12:14:51;;;;;;;9.85;2.20;;;6.50;99.90;;;;;;5054277;28;20040;-83
2021/12/07 12:17:41;;;;;;;4.68;1.83;;;6.40;99.90;;;;;;5049058;28;20049;-85
2021/12/07 12:20:56;;;;;;;8.67;2.10;;;4.80;99.90;;;;;;5063086;28;20568;-84
2021/12/07 12:23:33;;;;;;;9.65;2.60;;;5.80;99.90;;;;;;5049211;28;20400;-81
2021/12/07 12:26:06;;;;;;;15.02;2.50;;;4.60;99.90;;;;;;5043285;28;20022;-79
2021/12/07 12:28:38;;;;;;;12.57;2.38;;;8.40;99.90;;;;;;5044811;28;20025;-81
2021/12/07 12:31:06;;;;;;;13.18;2.40;;;5.70;99.90;;;;;;5042932;28;20029;-86
2021/12/07 12:33:55;;;;;;;6.07;2.10;;;5.30;99.90;;;;;;5043111;28;20032;-81
2021/12/07 12:36:36;;;;;;;7.13;2.05;;;6.60;99.90;;;;;;5045637;28;20029;-85
2021/12/07 12:39:08;;;;;;;8.52;2.70;;;6.70;99.90;;;;;;5035451;28;20470;-83
2021/12/07 12:41:36;;;;;;;4.05;1.67;;;6.60;99.90;;;;;;5050185;28;20497;-81
2021/12/07 12:44:14;;;;;;;8.48;2.03;;;6.50;99.90;;;;;;5048411;28;20512;-84
2021/12/07 12:46:43;;;;;;;9.45;2.47;;;6.50;99.90;;;;;;5049837;28;20499;-79
2021/12/07 12:49:12;;;;;;;7.32;2.35;;;;;;;;;;5046603;28;20038;-80
2021/12/07 12:51:50;;;;;;;6.93;2.58;;;6.40;99.90;;;;;;5035864;28;20183;-80
2021/12/07 12:54:18;;;;;;;5.10;1.50;;;6.40;99.90;;;;;;5040559;28;20097;-81
2021/12/07 12:56:45;;;;;;;4.57;1.83;;;6.30;99.90;;;;;;5046231;28;20052;-80
2021/12/07 12:59:13;;;;;;;7.00;2.03;;;6.40;99.90;;;;;;5046769;28;20042;-81
2021/12/07 13:01:43;;;;;;;8.18;2.13;;;6.40;99.90;;;;;;5044551;28;20021;-81
2021/12/07 13:04:28;;;;;;;9.40;1.77;;;6.40;99.90;;;;;;5045179;28;20029;-83
2021/12/07 13:07:44;;;;;;;12.93;2.67;;;6.40;99.90;;;;;;5038502;28;20504;-81
2021/12/07 13:10:00;;;;;;;6.55;1.90;;;7.70;99.90;;;;;;5054031;28;20025;-82
2021/12/07 13:12:38;;;;;;;7.18;2.45;;;6.60;99.90;;;;;;5046987;28;20037;-84
2021/12/07 13:15:15;;;;;;;6.63;1.98;;;5.90;99.90;;;;;;5050474;28;20063;-80
2021/12/07 13:17:48;;;;;;;4.82;2.33;;;6.20;99.90;;;;;;5042302;28;20029;-81
2021/12/07 13:20:24;;;;;;;5.38;2.47;;;6.60;99.90;;;;;;5042626;28;20025;-82
2021/12/07 13:23:12;;;;;;;8.07;2.58;;;7.90;99.90;;;;;;5039968;28;20068;-84
2021/12/07 13:25:50;;;;;;;7.90;2.22;;;6.60;99.90;;;;;;5039939;28;20029;-81
2021/12/07 13:28:27;;;;;;;12.70;3.63;;;5.20;99.90;;;;;;5052992;28;20087;-81
2021/12/07 13:31:14;;;;;;;8.38;2.10;;;6.70;99.90;;;;;;5053398;28;20017;-81
2021/12/07 13:33:43;;;;;;;9.40;2.42;;;7.30;99.90;;;;;;5046071;28;20025;-83
2021/12/07 13:36:30;;;;;;;5.72;2.30;;;6.10;99.90;;;;;;5024269;28;20059;-80
2021/12/07 13:39:26;;;;;;;6.70;2.80;;;6.90;99.90;;;;;;5056737;28;20025;-82
2021/12/07 13:42:20;;;;;;;5.38;2.08;;;6.80;99.90;;;;;;5052354;28;20116;-82
2021/12/07 13:45:09;;;;;;;11.50;2.63;;;6.80;99.90;;;;;;5055463;28;20474;-81
2021/12/07 13:47:41;;;;;;;5.32;2.00;;;6.80;99.90;;;;;;5052627;28;20123;-80
2021/12/07 13:50:15;;;;;;;11.02;2.47;;;6.60;99.90;;;;;;5068764;28;20028;-81
2021/12/07 13:52:50;;;;;;;9.65;1.95;;;6.70;99.90;;;;;;5052547;28;20025;-82
2021/12/07 13:55:20;;;;;;;6.05;1.88;;;9.30;99.90;;;;;;5052617;28;20033;-83
2021/12/07 13:57:54;;;;;;;7.72;1.75;;;6.60;99.90;;;;;;5065035;28;20040;-81
2021/12/07 14:00:28;;;;;;;17.80;4.50;;;6.60;99.90;;;;;;5033736;28;20433;-81
2021/12/07 14:03:00;;;;;;;4.10;1.60;;;6.60;99.90;;;;;;5032489;28;20021;-82
2021/12/07 14:05:29;;;;;;;7.18;2.05;;;7.50;99.90;;;;;;5034295;28;20036;-80
2021/12/07 14:07:59;;;;;;;5.40;2.03;;;5.00;99.90;;;;;;5032210;28;20032;-80
2021/12/07 14:10:50;;;;;;;5.32;1.85;;;6.70;99.90;;;;;;5033425;28;20057;-81
2021/12/07 14:13:18;;;;;;;4.68;1.40;;;7.40;99.90;;;;;;5031879;28;20125;-80
2021/12/07 14:15:47;;;;;;;6.57;2.63;;;8.00;99.90;;;;;;5032578;28;20021;-81
2021/12/07 14:18:23;;;;;;;13.68;3.60;;;6.60;99.90;;;;;;5037344;28;20056;-82
2021/12/07 14:20:54;;;;;;;8.35;2.10;;;6.60;99.90;;;;;;5038305;28;20021;-81
2021/12/07 14:23:31;;;;;;;;;;;8.70;99.90;;;;;;5060793;28;20304;-84
2021/12/07 14:26:06;;;;;;;9.13;2.08;;;6.70;99.90;;;;;;5063387;28;19908;-86
2021/12/07 14:28:48;;;;;;;6.55;2.38;;;6.80;99.90;;;;;;5053759;28;20047;-85
2021/12/07 14:31:28;;;;;;;5.53;2.15;;;6.30;99.90;;;;;;5067694;28;20419;-83
2021/12/07 14:34:00;;;;;;;5.35;2.00;;;6.60;99.90;;;;;;5044975;28;20033;-80
2021/12/07 14:36:45;;;;;;;6.32;2.00;;;6.70;99.90;;;;;;5048494;28;20358;-81
2021/12/07 14:39:26;;;;;;;7.03;1.73;;;6.70;99.90;;;;;;5046841;28;20389;-81
2021/12/07 14:42:00;;;;;;;9.57;2.17;;;6.60;99.90;;;;;;5031731;28;20055;-83
2021/12/07 14:44:29;;;;;;;5.85;1.85;;;6.50;99.90;;;;;;5030070;28;20092;-80
2021/12/07 14:46:59;;;;;;;7.32;2.00;;;6.60;99.90;;;;;;5042539;28;20088;-81
2021/12/07 14:49:27;;;;;;;9.52;1.70;;;6.70;99.90;;;;;;5046375;28;20025;-79
2021/12/07 14:51:56;;;;;;;7.90;1.88;;;7.80;99.90;;;;;;5043801;28;20037;-83
2021/12/07 14:54:22;;;;;;;5.43;2.05;;;6.70;99.90;;;;;;5049289;28;20025;-81
2021/12/07 14:56:49;;;;;;;4.25;1.88;;;8.00;99.90;;;;;;5049374;28;20033;-83
2021/12/07 14:59:18;;;;;;;5.55;1.92;;;6.40;99.90;;;;;;5057870;28;20117;-82
2021/12/07 15:01:48;;;;;;;5.53;1.70;;;6.30;99.90;;;;;;5048636;28;20017;-84
2021/12/07 15:04:16;;;;;;;;;;;5.50;99.90;;;;;;5046418;28;20021;-82
2021/12/07 15:06:57;;;;;;;5.43;2.20;;;4.00;99.90;;;;;;5071438;28;19909;-84
2021/12/07 15:09:25;;;;;;;7.53;1.92;;;4.90;99.90;;;;;;5046339;28;20021;-83